sensor_id;sensor_type;location;lat;lon;timestamp;temperature;humidity
75105;DHT22;64778;47.314;8.466;2022-11-20T17:14:23;6.20;72.00
75105;DHT22;64778;47.314;8.466;2022-11-20T17:16:51;6.20;71.10
75105;DHT22;64778;47.314;8.466;2022-11-20T17:19:17;6.10;72.00
75105;DHT22;64778;47.314;8.466;2022-11-20T17:21:42;6.10;71.00
75105;DHT22;64778;47.314;8.466;2022-11-20T17:24:12;6.00;71.60
75105;DHT22;64778;47.314;8.466;2022-11-20T17:26:40;6.00;71.80
75105;DHT22;64778;47.314;8.466;2022-11-20T17:29:11;6.00;71.60
75105;DHT22;64778;47.314;8.466;2022-11-20T17:31:38;5.90;71.20
75105;DHT22;64778;47.314;8.466;2022-11-20T17:34:05;5.90;70.70
75105;DHT22;64778;47.314;8.466;2022-11-20T17:36:33;5.90;70.50
75105;DHT22;64778;47.314;8.466;2022-11-20T17:38:59;6.00;71.00
75105;DHT22;64778;47.314;8.466;2022-11-20T17:41:27;6.00;70.00
75105;DHT22;64778;47.314;8.466;2022-11-20T17:43:57;6.10;71.20
75105;DHT22;64778;47.314;8.466;2022-11-20T17:46:26;6.00;71.80
75105;DHT22;64778;47.314;8.466;2022-11-20T17:48:52;6.10;71.10
75105;DHT22;64778;47.314;8.466;2022-11-20T17:51:23;6.10;71.90
75105;DHT22;64778;47.314;8.466;2022-11-20T17:53:51;6.10;72.10
75105;DHT22;64778;47.314;8.466;2022-11-20T17:56:18;6.00;71.70
75105;DHT22;64778;47.314;8.466;2022-11-20T17:59:09;6.00;71.80
75105;DHT22;64778;47.314;8.466;2022-11-20T18:01:35;6.10;71.50
75105;DHT22;64778;47.314;8.466;2022-11-20T18:04:01;6.10;71.90
75105;DHT22;64778;47.314;8.466;2022-11-20T18:06:30;6.10;71.80
75105;DHT22;64778;47.314;8.466;2022-11-20T18:09:00;6.10;71.40
75105;DHT22;64778;47.314;8.466;2022-11-20T18:11:29;6.20;70.40
75105;DHT22;64778;47.314;8.466;2022-11-20T18:13:59;6.30;70.40
75105;DHT22;64778;47.314;8.466;2022-11-20T18:16:49;6.30;70.10
75105;DHT22;64778;47.314;8.466;2022-11-20T18:19:23;6.30;69.80
75105;DHT22;64778;47.314;8.466;2022-11-20T18:21:51;6.40;70.40
75105;DHT22;64778;47.314;8.466;2022-11-20T18:24:17;6.40;69.90
75105;DHT22;64778;47.314;8.466;2022-11-20T18:26:46;6.40;69.80
75105;DHT22;64778;47.314;8.466;2022-11-20T18:29:12;6.40;70.10
75105;DHT22;64778;47.314;8.466;2022-11-20T18:31:40;6.40;70.00
75105;DHT22;64778;47.314;8.466;2022-11-20T18:34:06;6.40;69.90
75105;DHT22;64778;47.314;8.466;2022-11-20T18:36:36;6.40;69.80
75105;DHT22;64778;47.314;8.466;2022-11-20T18:39:04;6.50;69.60
75105;DHT22;64778;47.314;8.466;2022-11-20T18:41:32;6.50;69.10
75105;DHT22;64778;47.314;8.466;2022-11-20T18:44:19;6.50;69.20
75105;DHT22;64778;47.314;8.466;2022-11-20T18:47:05;6.60;69.10
75105;DHT22;64778;47.314;8.466;2022-11-20T18:49:33;6.60;69.70
75105;DHT22;64778;47.314;8.466;2022-11-20T18:51:59;6.50;70.00
75105;DHT22;64778;47.314;8.466;2022-11-20T18:54:25;6.50;70.80
75105;DHT22;64778;47.314;8.466;2022-11-20T18:56:53;6.50;70.50
75105;DHT22;64778;47.314;8.466;2022-11-20T18:59:19;6.50;69.60
75105;DHT22;64778;47.314;8.466;2022-11-20T19:01:48;6.50;69.70
75105;DHT22;64778;47.314;8.466;2022-11-20T19:04:15;6.50;69.60
75105;DHT22;64778;47.314;8.466;2022-11-20T19:06:43;6.60;68.00
75105;DHT22;64778;47.314;8.466;2022-11-20T19:09:10;6.60;67.10
75105;DHT22;64778;47.314;8.466;2022-11-20T19:11:37;6.60;66.50
75105;DHT22;64778;47.314;8.466;2022-11-20T19:14:03;6.70;67.70
75105;DHT22;64778;47.314;8.466;2022-11-20T19:16:29;6.50;70.40
75105;DHT22;64778;47.314;8.466;2022-11-20T19:18:55;6.40;71.60
75105;DHT22;64778;47.314;8.466;2022-11-20T19:21:23;6.40;72.50
75105;DHT22;64778;47.314;8.466;2022-11-20T19:23:50;6.30;73.10
75105;DHT22;64778;47.314;8.466;2022-11-20T19:26:17;6.30;73.70
75105;DHT22;64778;47.314;8.466;2022-11-20T19:28:43;6.10;75.50
75105;DHT22;64778;47.314;8.466;2022-11-20T19:31:12;5.70;76.90
75105;DHT22;64778;47.314;8.466;2022-11-20T19:33:39;5.60;77.50
75105;DHT22;64778;47.314;8.466;2022-11-20T19:36:15;5.50;78.40
75105;DHT22;64778;47.314;8.466;2022-11-20T19:38:43;5.40;78.70
75105;DHT22;64778;47.314;8.466;2022-11-20T19:41:10;5.30;76.80
75105;DHT22;64778;47.314;8.466;2022-11-20T19:43:35;5.30;78.40
75105;DHT22;64778;47.314;8.466;2022-11-20T19:46:01;5.30;78.90
75105;DHT22;64778;47.314;8.466;2022-11-20T19:48:35;5.20;80.40
75105;DHT22;64778;47.314;8.466;2022-11-20T19:51:16;5.20;80.20
75105;DHT22;64778;47.314;8.466;2022-11-20T19:53:45;5.10;80.40
75105;DHT22;64778;47.314;8.466;2022-11-20T19:56:11;5.10;81.20
75105;DHT22;64778;47.314;8.466;2022-11-20T19:58:37;5.00;81.00
75105;DHT22;64778;47.314;8.466;2022-11-20T20:01:12;5.00;81.60
75105;DHT22;64778;47.314;8.466;2022-11-20T20:03:44;5.00;82.40
75105;DHT22;64778;47.314;8.466;2022-11-20T20:06:15;4.80;84.10
75105;DHT22;64778;47.314;8.466;2022-11-20T20:08:41;4.80;83.10
75105;DHT22;64778;47.314;8.466;2022-11-20T20:13:35;4.40;86.40
75105;DHT22;64778;47.314;8.466;2022-11-20T20:16:04;4.30;87.20
75105;DHT22;64778;47.314;8.466;2022-11-20T20:18:32;4.30;86.90
75105;DHT22;64778;47.314;8.466;2022-11-20T20:21:06;4.20;86.40
75105;DHT22;64778;47.314;8.466;2022-11-20T20:23:32;4.20;88.00
75105;DHT22;64778;47.314;8.466;2022-11-20T20:25:58;4.20;87.60
75105;DHT22;64778;47.314;8.466;2022-11-20T20:28:25;4.10;87.90
75105;DHT22;64778;47.314;8.466;2022-11-20T20:30:53;4.20;88.40
75105;DHT22;64778;47.314;8.466;2022-11-20T20:33:19;4.10;88.00
75105;DHT22;64778;47.314;8.466;2022-11-20T20:35:45;4.10;87.90
75105;DHT22;64778;47.314;8.466;2022-11-20T20:38:11;4.10;88.10
75105;DHT22;64778;47.314;8.466;2022-11-20T20:40:45;4.20;88.30
75105;DHT22;64778;47.314;8.466;2022-11-20T20:43:12;4.20;88.50
75105;DHT22;64778;47.314;8.466;2022-11-20T20:45:51;4.20;88.20
75105;DHT22;64778;47.314;8.466;2022-11-20T20:48:21;4.20;88.60
75105;DHT22;64778;47.314;8.466;2022-11-20T20:50:58;4.10;89.20
75105;DHT22;64778;47.314;8.466;2022-11-20T20:53:25;4.10;89.00
75105;DHT22;64778;47.314;8.466;2022-11-20T20:55:59;4.00;88.80
75105;DHT22;64778;47.314;8.466;2022-11-20T20:58:29;4.10;89.10
75105;DHT22;64778;47.314;8.466;2022-11-20T21:01:12;4.10;88.90
75105;DHT22;64778;47.314;8.466;2022-11-20T21:03:38;4.10;88.00
75105;DHT22;64778;47.314;8.466;2022-11-20T21:06:05;4.20;88.00
75105;DHT22;64778;47.314;8.466;2022-11-20T21:08:31;4.20;88.60
75105;DHT22;64778;47.314;8.466;2022-11-20T21:11:04;4.20;88.20
75105;DHT22;64778;47.314;8.466;2022-11-20T21:13:30;4.20;88.30
75105;DHT22;64778;47.314;8.466;2022-11-20T21:15:57;4.20;89.10
75105;DHT22;64778;47.314;8.466;2022-11-20T21:18:22;4.20;88.80
75105;DHT22;64778;47.314;8.466;2022-11-20T21:20:49;4.30;89.10
75105;DHT22;64778;47.314;8.466;2022-11-20T21:23:34;4.30;89.10
75105;DHT22;64778;47.314;8.466;2022-11-20T21:26:01;4.30;88.50
75105;DHT22;64778;47.314;8.466;2022-11-20T21:28:28;4.30;88.50
75105;DHT22;64778;47.314;8.466;2022-11-20T21:36:09;4.30;88.50
75105;DHT22;64778;47.314;8.466;2022-11-20T21:38:37;4.30;88.30
75105;DHT22;64778;47.314;8.466;2022-11-20T21:41:07;4.30;88.60
75105;DHT22;64778;47.314;8.466;2022-11-20T21:43:35;4.30;88.70
75105;DHT22;64778;47.314;8.466;2022-11-20T21:46:09;4.30;89.00
75105;DHT22;64778;47.314;8.466;2022-11-20T21:48:36;4.30;89.10
75105;DHT22;64778;47.314;8.466;2022-11-20T21:53:35;4.30;90.10
75105;DHT22;64778;47.314;8.466;2022-11-20T21:56:03;4.30;89.80
75105;DHT22;64778;47.314;8.466;2022-11-20T21:58:29;4.30;90.00
75105;DHT22;64778;47.314;8.466;2022-11-20T22:00:57;4.30;90.00
75105;DHT22;64778;47.314;8.466;2022-11-20T22:03:23;4.30;89.80
75105;DHT22;64778;47.314;8.466;2022-11-20T22:05:53;4.30;90.00
75105;DHT22;64778;47.314;8.466;2022-11-20T22:08:19;4.30;90.10
75105;DHT22;64778;47.314;8.466;2022-11-20T22:11:02;4.30;90.00
75105;DHT22;64778;47.314;8.466;2022-11-20T22:13:30;4.30;90.30
75105;DHT22;64778;47.314;8.466;2022-11-20T22:16:15;4.30;90.20
75105;DHT22;64778;47.314;8.466;2022-11-20T22:18:43;4.30;90.50
75105;DHT22;64778;47.314;8.466;2022-11-20T22:21:09;4.30;90.30
75105;DHT22;64778;47.314;8.466;2022-11-20T22:23:35;4.30;90.40
75105;DHT22;64778;47.314;8.466;2022-11-20T22:26:09;4.30;90.50
75105;DHT22;64778;47.314;8.466;2022-11-20T22:28:35;4.30;90.40
75105;DHT22;64778;47.314;8.466;2022-11-20T22:31:03;4.40;90.30
75105;DHT22;64778;47.314;8.466;2022-11-20T22:33:31;4.40;90.30
75105;DHT22;64778;47.314;8.466;2022-11-20T22:36:04;4.40;90.00
75105;DHT22;64778;47.314;8.466;2022-11-20T22:38:30;4.50;90.00
75105;DHT22;64778;47.314;8.466;2022-11-20T22:41:08;4.50;89.50
75105;DHT22;64778;47.314;8.466;2022-11-20T22:43:34;4.50;88.90
75105;DHT22;64778;47.314;8.466;2022-11-20T22:46:05;4.50;89.10
75105;DHT22;64778;47.314;8.466;2022-11-20T22:48:35;4.50;89.20
75105;DHT22;64778;47.314;8.466;2022-11-20T22:51:17;4.50;89.10
75105;DHT22;64778;47.314;8.466;2022-11-20T22:53:43;4.40;89.10
75105;DHT22;64778;47.314;8.466;2022-11-20T22:56:10;4.40;88.90
75105;DHT22;64778;47.314;8.466;2022-11-20T22:58:40;4.40;88.20
75105;DHT22;64778;47.314;8.466;2022-11-20T23:03:43;4.40;88.30
75105;DHT22;64778;47.314;8.466;2022-11-20T23:06:10;4.40;88.30
75105;DHT22;64778;47.314;8.466;2022-11-20T23:08:37;4.40;88.10
75105;DHT22;64778;47.314;8.466;2022-11-20T23:11:11;4.30;88.10
75105;DHT22;64778;47.314;8.466;2022-11-20T23:13:40;4.40;87.80
75105;DHT22;64778;47.314;8.466;2022-11-20T23:16:09;4.40;87.30
75105;DHT22;64778;47.314;8.466;2022-11-20T23:18:35;4.50;87.50
75105;DHT22;64778;47.314;8.466;2022-11-20T23:21:15;4.50;87.50
75105;DHT22;64778;47.314;8.466;2022-11-20T23:23:41;4.50;86.80
75105;DHT22;64778;47.314;8.466;2022-11-20T23:26:09;4.50;87.00
75105;DHT22;64778;47.314;8.466;2022-11-20T23:28:36;4.60;86.80
75105;DHT22;64778;47.314;8.466;2022-11-20T23:31:02;4.60;86.50
75105;DHT22;64778;47.314;8.466;2022-11-20T23:33:28;4.60;86.40
75105;DHT22;64778;47.314;8.466;2022-11-20T23:35:56;4.60;86.80
75105;DHT22;64778;47.314;8.466;2022-11-20T23:38:24;4.60;86.60
75105;DHT22;64778;47.314;8.466;2022-11-20T23:40:51;4.60;86.40
75105;DHT22;64778;47.314;8.466;2022-11-20T23:43:17;4.60;86.60
75105;DHT22;64778;47.314;8.466;2022-11-20T23:45:49;4.70;85.60
75105;DHT22;64778;47.314;8.466;2022-11-20T23:48:15;4.70;85.40
75105;DHT22;64778;47.314;8.466;2022-11-20T23:50:44;4.80;85.80
75105;DHT22;64778;47.314;8.466;2022-11-20T23:53:12;4.70;86.40
75105;DHT22;64778;47.314;8.466;2022-11-20T23:55:46;4.80;86.50
75105;DHT22;64778;47.314;8.466;2022-11-20T23:58:12;4.70;86.40
